General Aviation Weather

Text Reports

Enter one or more of the following location identifiers separated by a space:

Zip Code, Four-Character ICAO or Three-Character IATA airport codes.

METAR - Aviation Routine Weather Report
KLNR - Lone Rock, Wisconsin
Updated at 11:56 PM GMT on April 19, 2014 (6:56 PM CDT):
METAR KLNR 192356Z AUTO 16008KT 10SM CLR 19/03 A3014 RMK AO2 SLP202 T01890033 10211 20161 55006
TAF - Terminal Area Forecast
KLNR - Lone Rock, Wisconsin
Updated at 11:56 PM GMT on April 19, 2014 (6:56 PM CDT):
No TAF is currently available for this location.
Decoded:
No decoded TAF is available.
PIREP - Pilot Weather Report
KLNR - Lone Rock, Wisconsin
Updated at 11:56 PM GMT on April 19, 2014 (6:56 PM CDT):
No PIREP is currently available for this location.
AIRMET - Airmens Meteorological Information
KLNR - Lone Rock, Wisconsin
Updated at 11:56 PM GMT on April 19, 2014 (6:56 PM CDT):
No AIRMET is currently available for this location.
SIGMET - Significant Meteorological Information
KLNR - Lone Rock, Wisconsin
Updated at 11:56 PM GMT on April 19, 2014 (6:56 PM CDT):
No SIGMET is currently available for this location.
NOTAM - Notice to Airmen
KLNR - Lone Rock, Wisconsin
Updated at 11:56 PM GMT on April 19, 2014 (6:56 PM CDT):
No NOTAM is currently available for this location.
Forecast Area
KLNR - Lone Rock, Wisconsin
Updated at 11:56 PM GMT on April 19, 2014 (6:56 PM CDT):
No NOTAM is currently available for this location.
Aviation Weather Maps